Terminal Aerodrome Forecast
Issued by NWS

Home | Current Version | Previous Version | Text Only | Print | Product List | Glossary On
Versions: 1 2 3 4 5 6 7 8 9 10 11 12 13 14 15 16
113
FTUS43 KDLH 231727
TAFBRD
TAF
KBRD 231727Z 2318/2418 06009KT P6SM OVC015
     FM232000 06009KT P6SM OVC020
     FM232300 06009KT P6SM SCT150
     FM241000 13010G18KT P6SM VCSH SCT015 OVC100=

USA.gov is the U.S. government's official web portal to all federal, state and local government web resources and services.